Flight Track Log - Related Links

Times and Time Zones

All times are in EDT time to prevent confusion due to time zone crossing. See the UAL6136 flight status page for this flight to view local times or setup timezone preferences in your user account.

Time Position Orientation Groundspeed Altitude Reporting Facility
EDT Latitude Longitude Course Direction KTS MPH feet Rate Location/Type
Fri 04:13:40 PM 33.0647 -80.1042 337° Northwest 255 293 6,300  Level Jacksonville Center
Fri 04:14:40 PM 33.1303 -80.1392 336° Northwest 255 293 7,500 1,750 Climbing Jacksonville Center
Fri 04:15:40 PM 33.1978 -80.1794 333° Northwest 267 307 9,800 1,650 Climbing Jacksonville Center
Fri 04:16:40 PM 33.2717 -80.2194 336° Northwest 267 307 10,800 1,400 Climbing Jacksonville Center
Fri 04:17:00 PM 33.3317 -80.2492 337° Northwest  Level FlightAware Approximate
Fri 04:17:40 PM 33.3583 -80.2714 333° Northwest 296 341 12,600  Level Jacksonville Center
Fri 04:18:40 PM 33.4283 -80.3242 328° Northwest 332 382 14,800 1,900 Climbing Jacksonville Center
Fri 04:19:40 PM 33.5108 -80.3817 330° Northwest 339 390 16,400 1,550 Climbing Jacksonville Center
Fri 04:20:40 PM 33.5956 -80.4414 330° Northwest 344 396 17,900 1,550 Climbing Jacksonville Center
Fri 04:21:40 PM 33.6781 -80.5017 329° Northwest 349 402 19,500 1,800 Climbing Jacksonville Center
Fri 04:22:40 PM 33.7606 -80.5592 330° Northwest 349 402 21,500 1,850 Climbing Jacksonville Center
Fri 04:23:40 PM 33.8431 -80.6172 330° Northwest 349 402 23,200 2,000 Climbing Jacksonville Center
Fri 04:24:40 PM 33.9214 -80.6753 328° Northwest 344 396 25,500 2,050 Climbing Jacksonville Center
Fri 04:25:40 PM 33.9972 -80.7283 330° Northwest 339 390 27,300 1,750 Climbing Jacksonville Center
Fri 04:26:40 PM 34.0733 -80.7817 330° Northwest 329 379 29,000 1,650 Climbing Jacksonville Center
Fri 04:27:40 PM 34.1472 -80.8375 328° Northwest 317 365 30,600 1,600 Climbing Jacksonville Center
Fri 04:28:40 PM 34.2189 -80.8886 329° Northwest 312 359 32,200 862 Climbing Jacksonville Center
Fri 04:30:41 PM 34.3681 -81.0014 328° Northwest 304 350 33,200 597 Climbing Atlanta Center
Fri 04:31:41 PM 34.4489 -81.0589 330° Northwest 329 379 34,000 500 Climbing Atlanta Center
Fri 04:32:41 PM 34.5422 -81.1236 330° Northwest 347 399 34,200 800 Climbing Atlanta Center
Fri 04:33:41 PM 34.6272 -81.1864 329° Northwest 353 406 35,600 900 Climbing Atlanta Center
Fri 04:34:41 PM 34.7081 -81.2467 328° Northwest 343 395 36,000 200 Climbing Atlanta Center
Fri 04:35:41 PM 34.7928 -81.3072 330° Northwest 348 400 36,000  Level Atlanta Center
Fri 04:36:41 PM 34.8797 -81.3753 327° Northwest 366 421 36,000  Level Atlanta Center
Fri 04:37:41 PM 34.9689 -81.4383 330° Northwest 371 427 36,000  Level Atlanta Center
Fri 04:38:41 PM 35.0600 -81.5064 329° Northwest 377 434 36,000  Level Atlanta Center
Fri 04:39:41 PM 35.1489 -81.5722 329° Northwest 377 434 36,000  Level Atlanta Center
Fri 04:40:41 PM 35.2294 -81.6333 328° Northwest 372 428 36,000  Level Atlanta Center
Fri 04:41:41 PM 35.3183 -81.6994 329° Northwest 372 428 36,000  Level Atlanta Center
Fri 04:42:41 PM 35.4072 -81.7658 329° Northwest 372 428 36,000  Level Atlanta Center
Fri 04:43:41 PM 35.4981 -81.8347 328° Northwest 372 428 36,000  Level Atlanta Center
Fri 04:44:41 PM 35.5933 -81.9064 329° Northwest 372 428 36,000  Level Atlanta Center
Fri 04:45:41 PM 35.6819 -81.9703 330° Northwest 372 428 36,000  Level Atlanta Center
Fri 04:46:41 PM 35.7750 -82.0372 330° Northwest 372 428 36,000  Level Atlanta Center
Fri 04:47:41 PM 35.8658 -82.1042 329° Northwest 372 428 36,000  Level Atlanta Center
Fri 04:48:41 PM 35.9522 -82.1714 328° Northwest 372 428 36,000  Level Atlanta Center
Fri 04:49:41 PM 36.0283 -82.2311 328° Northwest 367 422 36,000  Level Atlanta Center
Fri 04:50:41 PM 36.1253 -82.3036 329° Northwest 367 422 36,000  Level Atlanta Center
Fri 04:51:41 PM 36.2117 -82.3711 328° Northwest 367 422 36,000  Level Atlanta Center
Fri 04:52:41 PM 36.2981 -82.4364 329° Northwest 367 422 36,000  Level Atlanta Center
Fri 04:53:41 PM 36.3867 -82.5042 328° Northwest 367 422 36,000  Level Atlanta Center
Fri 04:54:41 PM 36.4728 -82.5697 329° Northwest 367 422 36,000  Level Atlanta Center
Fri 04:55:41 PM 36.5592 -82.6378 328° Northwest 367 422 36,000  Level Atlanta Center
Fri 04:57:28 PM 36.6989 -82.7458 328° Northwest 364 419 36,000  Level Indianapolis Center
Fri 04:58:30 PM 36.7969 -82.8214 328° Northwest 355 409 36,000  Level Indianapolis Center
Fri 04:59:32 PM 36.8794 -82.8856 328° Northwest 355 409 36,000  Level Indianapolis Center
Fri 05:00:34 PM 36.9653 -82.9539 328° Northwest 361 415 36,000  Level Indianapolis Center
Fri 05:01:36 PM 37.0581 -83.0264 328° Northwest 358 412 36,000  Level Indianapolis Center
Fri 05:02:38 PM 37.1444 -83.0936 328° Northwest 364 419 36,000  Level Indianapolis Center
Fri 05:03:40 PM 37.2297 -83.1617 328° Northwest 362 417 36,000  Level Indianapolis Center
Fri 05:04:42 PM 37.3142 -83.2286 328° Northwest 361 415 36,000  Level Indianapolis Center
Fri 05:05:44 PM 37.4128 -83.3056 328° Northwest 359 413 36,000  Level Indianapolis Center
Fri 05:06:46 PM 37.4961 -83.3728 327° Northwest 356 410 36,000  Level Indianapolis Center
Fri 05:07:49 PM 37.5806 -83.4397 328° Northwest 357 411 36,000  Level Indianapolis Center
Fri 05:08:51 PM 37.6664 -83.5075 328° Northwest 363 418 36,000  Level Indianapolis Center
Fri 05:09:53 PM 37.7561 -83.5706 331° Northwest 368 423 36,000  Level Indianapolis Center
Fri 05:10:55 PM 37.8456 -83.6375 329° Northwest 371 427 36,000  Level Indianapolis Center
Fri 05:11:57 PM 37.9500 -83.7133 330° Northwest 370 426 36,000  Level Indianapolis Center
Fri 05:12:59 PM 38.0381 -83.7783 330° Northwest 367 422 36,000  Level Indianapolis Center
Fri 05:14:01 PM 38.1256 -83.8442 329° Northwest 366 421 36,000  Level Indianapolis Center
Fri 05:15:03 PM 38.2147 -83.9097 330° Northwest 368 423 36,000  Level Indianapolis Center
Fri 05:16:05 PM 38.3025 -83.9769 329° Northwest 368 423 36,000  Level Indianapolis Center
Fri 05:17:07 PM 38.4047 -84.0542 329° Northwest 367 422 36,000  Level Indianapolis Center
Fri 05:18:09 PM 38.4942 -84.1197 330° Northwest 368 423 36,000  Level Indianapolis Center
Fri 05:19:11 PM 38.5828 -84.1872 329° Northwest 370 426 36,000  Level Indianapolis Center
Fri 05:20:13 PM 38.6778 -84.2594 329° Northwest 372 428 36,000  Level Indianapolis Center
Fri 05:21:15 PM 38.7678 -84.3292 329° Northwest 374 430 36,000  Level Indianapolis Center
Fri 05:22:17 PM 38.8583 -84.3978 329° Northwest 375 432 36,000  Level Indianapolis Center
Fri 05:23:19 PM 38.9492 -84.4661 330° Northwest 375 432 36,000  Level Indianapolis Center
Fri 05:24:21 PM 39.0394 -84.5361 329° Northwest 375 432 36,000 -145 Level Indianapolis Center
Fri 05:25:23 PM 39.1311 -84.6058 329° Northwest 377 434 35,700 -629 Descending Indianapolis Center
Fri 05:26:25 PM 39.2217 -84.6756 329° Northwest 376 433 34,700 -1,210 Descending Indianapolis Center
Fri 05:27:27 PM 39.3292 -84.7594 329° Northwest 380 437 33,200 -1,584 Descending Indianapolis Center
Fri 05:28:30 PM 39.4217 -84.8311 329° Northwest 384 442 31,400 -1,824 Descending Indianapolis Center
Fri 05:29:32 PM 39.5186 -84.9056 329° Northwest 392 451 29,400 -1,645 Descending Indianapolis Center
Fri 05:30:34 PM 39.6089 -84.9761 329° Northwest 381 438 28,000 -677 Descending Indianapolis Center
Fri 05:31:36 PM 39.6994 -85.0472 329° Northwest 381 438 28,000  Level Indianapolis Center
Fri 05:32:38 PM 39.7908 -85.1194 329° Northwest 383 441 28,000  Level Indianapolis Center
Fri 05:33:40 PM 39.8836 -85.1928 329° Northwest 387 445 28,000 -387 Level Indianapolis Center
Fri 05:34:42 PM 39.9908 -85.2758 329° Northwest 383 441 27,200 -1,355 Descending Indianapolis Center
Fri 05:35:44 PM 40.0806 -85.3489 328° Northwest 381 438 25,200 -1,730 Descending Indianapolis Center
Fri 05:36:33 PM 40.1581 -85.4089 329° Northwest 386 444 24,000 -649 Descending Chicago Center
Fri 05:37:35 PM 40.2511 -85.4817 329° Northwest 388 447 24,000  Level Chicago Center
Fri 05:38:37 PM 40.3428 -85.5558 328° Northwest 388 447 24,000  Level Chicago Center
Fri 05:39:39 PM 40.4353 -85.6300 329° Northwest 388 447 24,000  Level Chicago Center
Fri 05:40:41 PM 40.5192 -85.7219 320° Northwest 394 453 24,000  Level Chicago Center
Fri 05:41:43 PM 40.5864 -85.8350 308° West 390 449 24,000 -871 Level Chicago Center
Fri 05:42:45 PM 40.6622 -85.9644 308° West 382 440 22,200 -968 Descending Chicago Center
Fri 05:43:47 PM 40.7275 -86.0781 307° West 378 435 22,000 -97 Descending Chicago Center
Fri 05:44:49 PM 40.7919 -86.1881 308° West 378 435 22,000  Level Chicago Center
Fri 05:45:51 PM 40.8558 -86.2992 307° West 379 436 22,000 -97 Level Chicago Center
Fri 05:46:53 PM 40.9206 -86.4100 308° West 381 438 21,800 -726 Descending Chicago Center
Fri 05:47:55 PM 40.9842 -86.5214 307° West 380 437 20,500 -1,248 Descending Chicago Center
Fri 05:48:58 PM 41.0475 -86.6331 307° West 381 438 19,200 -1,296 Descending Chicago Center
Fri 05:50:00 PM 41.1181 -86.7536 308° West 380 437 17,800 -1,113 Descending Chicago Center
Fri 05:51:02 PM 41.1797 -86.8644 306° West 377 434 16,900 -1,161 Descending Chicago Center
Fri 05:52:04 PM 41.2544 -86.9972 307° West 377 434 15,400 -1,548 Descending Chicago Center
Fri 05:53:06 PM 41.3139 -87.1022 307° West 363 418 13,700 -1,548 Descending Chicago Center
Fri 05:54:08 PM 41.3717 -87.2025 308° West 348 400 12,200 -1,630 Descending Chicago Center
Fri 05:54:27 PM 41.4000 -87.2333 321° Northwest 348 400 11,500 -986 Descending Chicago TRACON
Fri 05:55:21 PM 41.4667 -87.3167 317° Northwest 350 403 11,000 -263 Descending Chicago TRACON
Fri 05:56:21 PM 41.5500 -87.4000 323° Northwest 349 402 11,000  Level Chicago TRACON
Fri 05:57:14 PM 41.6056 -87.4706 316° Northwest 347 399 11,000 -313 Level Chicago Center
Fri 05:58:16 PM 41.6719 -87.5444 320° Northwest 320 368 10,400 -1,210 Descending Chicago Center
Fri 05:59:18 PM 41.7303 -87.6117 319° Northwest 287 330 8,500 -1,452 Descending Chicago Center
Fri 06:00:20 PM 41.7903 -87.6794 320° Northwest 286 329 7,400 -726 Descending Chicago Center
Fri 06:01:22 PM 41.8728 -87.7194 340° North 291 335 7,000 -194 Descending Chicago Center
Fri 06:02:24 PM 41.9436 -87.7172 North 261 300 7,000 -240 Level Chicago Center
Fri 06:03:27 PM 42.0000 -87.7000 13° North 223 257 6,500 -919 Descending Chicago TRACON
Fri 06:04:28 PM 42.0667 -87.6667 20° North 216 249 5,100 -1,289 Descending Chicago TRACON
Fri 06:05:28 PM 42.1167 -87.7000 334° Northwest 196 226 3,900 -1,250 Descending Chicago TRACON
Fri 06:06:28 PM 42.1167 -87.7500 270° West 170 196 2,600 -762 Descending Chicago TRACON
Fri 06:07:34 PM 42.0833 -87.8000 228° Southwest 159 183 2,300 -250 Descending Chicago TRACON
Fri 06:08:28 PM 42.0500 -87.8333 217° Southwest 151 174 2,100 -500 Descending Chicago TRACON
Fri 06:09:34 PM 42.0167 -87.8667 217° Southwest 122 140 1,300 -727 Descending Chicago TRACON
Fri 06:11:00 PM 41.9817 -87.9067 244° Southwest  Level Estimated

Login

Don't have an account? Register now (free) for customized features, flight alerts, and more!